createdAt,value
2018-04-13T00:02:01.914Z,36.40
2018-04-13T00:04:29.053Z,33.22
2018-04-13T00:06:55.894Z,38.67
2018-04-13T00:09:22.782Z,32.60
2018-04-13T00:11:49.650Z,37.60
2018-04-13T00:14:16.503Z,33.80
2018-04-13T00:16:43.375Z,30.60
2018-04-13T00:19:10.526Z,31.27
2018-04-13T00:21:37.675Z,29.98
2018-04-13T00:24:04.539Z,33.43
2018-04-13T00:26:31.671Z,32.92
2018-04-13T00:28:58.506Z,31.40
2018-04-13T00:31:25.354Z,36.13
2018-04-13T00:33:52.197Z,37.35
2018-04-13T00:36:19.276Z,33.80
2018-04-13T00:38:46.150Z,34.08
2018-04-13T00:41:12.970Z,37.28
2018-04-13T00:43:39.831Z,33.80
2018-04-13T00:46:07.500Z,43.38
2018-04-13T00:48:34.346Z,35.78
2018-04-13T00:51:01.430Z,38.05
2018-04-13T00:53:28.581Z,35.95
2018-04-13T00:55:55.741Z,33.88
2018-04-13T00:58:22.587Z,37.25
2018-04-13T01:00:49.430Z,38.78
2018-04-13T01:03:16.877Z,36.92
2018-04-13T01:05:43.711Z,34.67
2018-04-13T01:08:10.868Z,36.35
2018-04-13T01:10:37.731Z,35.65
2018-04-13T01:13:04.806Z,36.53
2018-04-13T01:15:31.666Z,35.15
2018-04-13T01:17:58.553Z,38.85
2018-04-13T01:20:25.378Z,37.15
2018-04-13T01:23:40.056Z,36.22
2018-04-13T01:26:07.079Z,36.15
2018-04-13T01:28:33.951Z,38.80
2018-04-13T01:31:01.113Z,37.42
2018-04-13T01:33:27.945Z,36.58
2018-04-13T01:35:54.800Z,37.80
2018-04-13T01:38:21.671Z,38.40
2018-04-13T01:40:48.527Z,33.83
2018-04-13T01:43:15.625Z,36.35
2018-04-13T01:45:42.526Z,40.63
2018-04-13T01:48:09.589Z,40.33
2018-04-13T01:50:36.435Z,37.20
2018-04-13T01:53:03.300Z,37.42
2018-04-13T01:55:30.168Z,36.72
2018-04-13T01:57:57.119Z,35.15
2018-04-13T02:00:23.957Z,38.25
2018-04-13T02:02:50.903Z,39.05
2018-04-13T02:05:18.156Z,34.85
2018-04-13T02:07:45.763Z,39.13
2018-04-13T02:10:13.699Z,37.92
2018-04-13T02:12:40.904Z,40.63
2018-04-13T02:15:07.994Z,38.67
2018-04-13T02:17:35.522Z,36.95
2018-04-13T02:20:03.204Z,39.25
2018-04-13T02:22:30.182Z,37.03
2018-04-13T02:24:57.542Z,39.08
2018-04-13T02:27:24.834Z,38.10
2018-04-13T02:29:51.897Z,34.83
2018-04-13T02:32:19.016Z,38.50
2018-04-13T02:34:46.027Z,38.83
2018-04-13T02:37:13.565Z,39.70
2018-04-13T02:39:40.615Z,40.97
2018-04-13T02:42:07.627Z,37.83
2018-04-13T02:44:34.769Z,40.25
2018-04-13T02:47:01.976Z,39.15
2018-04-13T02:49:29.505Z,39.20
2018-04-13T02:51:56.937Z,42.20
2018-04-13T02:54:24.282Z,38.03
2018-04-13T02:56:51.356Z,40.45
2018-04-13T02:59:18.381Z,36.88
2018-04-13T03:01:45.894Z,36.90
2018-04-13T03:04:13.112Z,38.63
2018-04-13T03:06:40.721Z,40.17
2018-04-13T03:09:07.898Z,40.47
2018-04-13T03:11:35.652Z,39.10
2018-04-13T03:14:03.638Z,42.60
2018-04-13T03:16:31.161Z,40.83
2018-04-13T03:18:58.958Z,45.38
2018-04-13T03:21:27.109Z,39.72
2018-04-13T03:23:54.951Z,47.00
2018-04-13T03:26:22.445Z,38.03
2018-04-13T03:28:49.670Z,37.83
2018-04-13T03:31:16.944Z,41.35
2018-04-13T03:33:44.492Z,38.13
2018-04-13T03:36:12.072Z,39.22
2018-04-13T03:38:39.015Z,43.73
2018-04-13T03:41:06.241Z,42.70
2018-04-13T03:43:33.326Z,40.70
2018-04-13T03:46:00.509Z,43.47
2018-04-13T03:48:27.890Z,42.20
2018-04-13T03:50:55.231Z,41.72
2018-04-13T03:53:22.611Z,43.87
2018-04-13T03:55:50.003Z,42.58
2018-04-13T03:58:17.564Z,47.05
2018-04-13T04:01:00.086Z,39.45
2018-04-13T04:03:27.723Z,42.88
2018-04-13T04:05:54.888Z,40.60
2018-04-13T04:08:22.492Z,41.90
2018-04-13T04:10:49.712Z,43.00
2018-04-13T04:13:17.780Z,46.13
2018-04-13T04:15:44.767Z,40.03
2018-04-13T04:18:12.363Z,43.83
2018-04-13T04:20:45.397Z,50.45
2018-04-13T04:23:18.425Z,46.37
2018-04-13T04:26:01.237Z,41.10
2018-04-13T04:28:28.127Z,43.33
2018-04-13T04:30:54.962Z,42.58
2018-04-13T04:33:22.354Z,40.15
2018-04-13T04:35:49.230Z,43.40
2018-04-13T04:38:16.489Z,40.35
2018-04-13T04:40:43.350Z,47.57
2018-04-13T04:43:10.215Z,43.53
2018-04-13T04:45:37.491Z,45.92
2018-04-13T04:48:04.355Z,47.25
2018-04-13T04:50:31.687Z,46.80
2018-04-13T04:52:58.676Z,45.30
2018-04-13T04:55:25.533Z,44.05
2018-04-13T04:57:52.398Z,46.47
2018-04-13T05:00:19.358Z,41.95
2018-04-13T05:02:46.925Z,41.65
2018-04-13T05:05:14.282Z,47.67
2018-04-13T05:07:41.520Z,43.00
2018-04-13T05:10:09.444Z,48.05
2018-04-13T05:12:36.659Z,41.70
2018-04-13T05:15:03.473Z,43.03
2018-04-13T05:17:30.326Z,44.40
2018-04-13T05:19:57.311Z,49.42
2018-04-13T05:22:24.168Z,44.10
2018-04-13T05:24:51.715Z,42.35
2018-04-13T05:27:19.019Z,46.55
2018-04-13T05:29:45.922Z,48.15
2018-04-13T05:32:12.751Z,42.73
2018-04-13T05:34:39.635Z,41.60
2018-04-13T05:37:06.538Z,48.15
2018-04-13T05:39:33.671Z,43.60
2018-04-13T05:42:00.556Z,43.78
2018-04-13T05:44:27.414Z,42.75
2018-04-13T05:46:54.316Z,47.40
2018-04-13T05:49:21.589Z,45.00
2018-04-13T05:51:48.410Z,42.90
2018-04-13T05:54:15.259Z,47.08
2018-04-13T05:56:42.121Z,44.95
2018-04-13T05:59:08.975Z,50.50
2018-04-13T06:01:35.798Z,45.45
2018-04-13T06:04:02.717Z,45.83
2018-04-13T06:06:29.540Z,44.50
2018-04-13T06:08:56.606Z,50.47
2018-04-13T06:11:23.763Z,40.33
2018-04-13T06:13:50.915Z,48.75
2018-04-13T06:16:17.771Z,42.13
2018-04-13T06:18:44.629Z,48.50
2018-04-13T06:21:11.484Z,48.25
2018-04-13T06:23:38.367Z,43.73
2018-04-13T06:26:05.251Z,47.17
2018-04-13T06:28:32.378Z,46.05
2018-04-13T06:30:59.287Z,49.20
2018-04-13T06:33:26.177Z,48.90
2018-04-13T06:35:53.315Z,43.60
2018-04-13T06:38:20.469Z,43.65
2018-04-13T06:40:47.347Z,41.80
2018-04-13T06:43:14.203Z,43.95
2018-04-13T06:45:41.030Z,51.50
2018-04-13T06:48:07.873Z,45.65
2018-04-13T06:50:34.995Z,43.33
2018-04-13T06:53:02.147Z,42.22
2018-04-13T06:55:29.015Z,43.28
2018-04-13T06:57:55.863Z,39.13
2018-04-13T07:00:22.920Z,39.50
2018-04-13T07:02:49.757Z,41.07
2018-04-13T07:05:16.876Z,44.28
2018-04-13T07:07:44.021Z,40.40
2018-04-13T07:10:10.896Z,39.90
2018-04-13T07:12:37.738Z,40.83
2018-04-13T07:15:04.827Z,40.67
2018-04-13T07:17:31.678Z,41.70
2018-04-13T07:19:58.513Z,35.20
2018-04-13T07:22:25.337Z,35.17
2018-04-13T07:24:52.543Z,39.85
2018-04-13T07:27:19.997Z,38.30
2018-04-13T07:29:46.924Z,37.27
2018-04-13T07:32:13.806Z,39.95
2018-04-13T07:34:40.638Z,40.50
2018-04-13T07:37:07.491Z,35.28
2018-04-13T07:39:34.353Z,35.22
2018-04-13T07:42:01.334Z,39.22
2018-04-13T07:44:28.041Z,40.05
2018-04-13T07:46:54.923Z,41.60
2018-04-13T07:49:21.740Z,35.15
2018-04-13T07:51:48.834Z,36.55
2018-04-13T07:54:15.788Z,37.97
2018-04-13T07:56:42.636Z,37.47
2018-04-13T07:59:09.458Z,40.92
2018-04-13T08:01:36.310Z,36.83
2018-04-13T08:04:03.163Z,40.60
2018-04-13T08:06:29.981Z,35.38
2018-04-13T08:08:56.890Z,34.88
2018-04-13T08:11:23.752Z,35.97
2018-04-13T08:13:50.946Z,39.90
2018-04-13T08:16:17.826Z,32.00
2018-04-13T08:18:45.263Z,30.67
2018-04-13T08:21:12.178Z,33.43
2018-04-13T08:23:39.088Z,36.42
2018-04-13T08:26:06.074Z,28.92
2018-04-13T08:28:32.981Z,35.38
2018-04-13T08:31:00.012Z,32.00
2018-04-13T08:33:26.955Z,31.27
2018-04-13T08:35:53.795Z,34.75
2018-04-13T08:38:20.653Z,33.15
2018-04-13T08:40:47.715Z,34.05
2018-04-13T08:43:14.586Z,32.23
2018-04-13T08:45:41.555Z,32.10
2018-04-13T08:48:08.718Z,31.98
2018-04-13T08:50:35.579Z,37.35
2018-04-13T08:53:02.492Z,31.77
2018-04-13T08:55:29.331Z,34.23
2018-04-13T08:57:56.195Z,34.78
2018-04-13T09:00:23.414Z,31.50
2018-04-13T09:02:50.574Z,33.63
2018-04-13T09:05:17.438Z,30.70
2018-04-13T09:07:44.557Z,26.47
2018-04-13T09:10:11.419Z,26.57
2018-04-13T09:12:38.510Z,33.30
2018-04-13T09:15:05.393Z,28.73
2018-04-13T09:17:32.206Z,34.65
2018-04-13T09:19:59.021Z,29.07
2018-04-13T09:22:26.093Z,29.25
2018-04-13T09:24:52.955Z,31.65
2018-04-13T09:27:19.777Z,29.37
2018-04-13T09:29:46.646Z,30.20
2018-04-13T09:32:13.621Z,32.67
2018-04-13T09:34:40.477Z,30.45
2018-04-13T09:37:07.351Z,28.53
2018-04-13T09:39:34.174Z,30.08
2018-04-13T09:42:01.026Z,32.45
2018-04-13T09:44:27.882Z,29.90
2018-04-13T09:46:54.705Z,29.45
2018-04-13T09:49:21.804Z,28.12
2018-04-13T09:51:48.661Z,34.20
2018-04-13T09:54:15.810Z,29.17
2018-04-13T09:56:42.964Z,32.45
2018-04-13T09:59:09.849Z,28.10
2018-04-13T10:01:36.711Z,22.90
2018-04-13T10:04:03.527Z,21.55
2018-04-13T10:06:30.395Z,25.73
2018-04-13T10:08:57.248Z,24.33
2018-04-13T10:11:24.126Z,18.58
2018-04-13T10:13:50.972Z,22.25
2018-04-13T10:16:17.835Z,20.50
2018-04-13T10:18:44.966Z,27.80
2018-04-13T10:21:11.855Z,22.37
2018-04-13T10:23:38.700Z,21.45
2018-04-13T10:26:05.533Z,27.20
2018-04-13T10:28:32.371Z,22.42
2018-04-13T10:30:59.189Z,20.75
2018-04-13T10:33:26.047Z,22.55
2018-04-13T10:35:52.902Z,22.13
2018-04-13T10:38:19.751Z,17.00
2018-04-13T10:40:46.601Z,27.15
2018-04-13T10:43:13.734Z,19.92
2018-04-13T10:45:40.598Z,18.90
2018-04-13T10:48:07.475Z,21.52
2018-04-13T10:50:34.324Z,19.67
2018-04-13T10:53:01.191Z,22.65
2018-04-13T10:55:28.017Z,20.27
2018-04-13T10:57:54.858Z,20.50
2018-04-13T11:00:21.677Z,17.20
2018-04-13T11:02:48.567Z,21.15
2018-04-13T11:05:15.699Z,20.23
2018-04-13T11:07:42.845Z,23.10
2018-04-13T11:10:10.013Z,22.63
2018-04-13T11:12:37.150Z,21.63
2018-04-13T11:15:04.010Z,24.27
2018-04-13T11:17:30.859Z,15.75
2018-04-13T11:19:57.709Z,23.20
2018-04-13T11:22:24.827Z,19.42
2018-04-13T11:24:51.982Z,22.48
2018-04-13T11:27:18.817Z,28.25
2018-04-13T11:29:45.977Z,19.98
2018-04-13T11:32:13.117Z,28.90
2018-04-13T11:34:40.275Z,23.48
2018-04-13T11:37:07.128Z,21.55
2018-04-13T11:39:33.934Z,24.42
2018-04-13T11:42:01.104Z,26.10
2018-04-13T11:44:28.119Z,21.65
2018-04-13T11:46:54.928Z,25.33
2018-04-13T11:49:22.033Z,25.73
2018-04-13T11:51:48.861Z,25.62
2018-04-13T11:54:15.722Z,22.52
2018-04-13T11:56:42.773Z,21.08
2018-04-13T11:59:09.622Z,24.35
2018-04-13T12:01:36.664Z,28.83
2018-04-13T12:04:03.717Z,31.73
2018-04-13T12:06:30.532Z,23.85
2018-04-13T12:08:57.610Z,19.42
2018-04-13T12:11:24.419Z,19.85
2018-04-13T12:13:51.212Z,23.40
2018-04-13T12:16:18.004Z,29.37
2018-04-13T12:18:45.078Z,23.93
2018-04-13T12:21:11.876Z,25.93
2018-04-13T12:23:38.713Z,23.75
2018-04-13T12:26:05.549Z,27.35
2018-04-13T12:28:32.336Z,25.27
2018-04-13T12:30:59.397Z,23.62
2018-04-13T12:33:26.193Z,27.17
2018-04-13T12:35:53.064Z,28.47
2018-04-13T12:38:20.236Z,30.30
2018-04-13T12:40:47.288Z,27.75
2018-04-13T12:43:14.337Z,23.40
2018-04-13T12:45:41.210Z,24.17
2018-04-13T12:48:08.063Z,23.30
2018-04-13T12:50:34.887Z,23.70
2018-04-13T12:53:01.732Z,30.02
2018-04-13T12:55:28.849Z,24.00
2018-04-13T12:57:55.918Z,27.10
2018-04-13T13:00:22.732Z,26.60
2018-04-13T13:02:49.536Z,21.27
2018-04-13T13:05:16.737Z,29.83
2018-04-13T13:07:43.889Z,25.90
2018-04-13T13:10:10.720Z,23.25
2018-04-13T13:12:37.618Z,29.58
2018-04-13T13:15:04.731Z,30.77
2018-04-13T13:17:31.617Z,28.23
2018-04-13T13:19:58.473Z,25.55
2018-04-13T13:22:25.271Z,26.10
2018-04-13T13:24:52.105Z,23.52
2018-04-13T13:27:18.904Z,26.62
2018-04-13T13:29:45.988Z,26.55
2018-04-13T13:32:12.796Z,28.65
2018-04-13T13:34:39.682Z,34.28
2018-04-13T13:37:06.859Z,24.83
2018-04-13T13:39:33.678Z,24.27
2018-04-13T13:42:00.460Z,27.48
2018-04-13T13:44:27.320Z,26.80
2018-04-13T13:46:54.154Z,29.45
2018-04-13T13:49:21.001Z,21.33
2018-04-13T13:51:48.197Z,23.20
2018-04-13T13:54:15.021Z,24.85
2018-04-13T13:56:41.909Z,23.73
2018-04-13T13:59:09.032Z,25.17
2018-04-13T14:01:36.105Z,24.83
2018-04-13T14:04:03.228Z,23.40
2018-04-13T14:06:29.981Z,24.87
2018-04-13T14:08:56.847Z,26.90
2018-04-13T14:11:23.701Z,26.12
2018-04-13T14:13:50.800Z,22.37
2018-04-13T14:16:17.592Z,22.33
2018-04-13T14:18:45.042Z,25.50
2018-04-13T14:21:12.161Z,25.55
2018-04-13T14:23:39.302Z,26.05
2018-04-13T14:26:06.172Z,21.77
2018-04-13T14:28:33.310Z,24.25
2018-04-13T14:31:00.093Z,26.50
2018-04-13T14:33:26.934Z,20.92
2018-04-13T14:35:53.786Z,24.75
2018-04-13T14:38:20.626Z,24.17
2018-04-13T14:40:47.420Z,22.25
2018-04-13T14:43:14.571Z,17.58
2018-04-13T14:45:41.694Z,23.45
2018-04-13T14:48:08.510Z,36.30
2018-04-13T14:50:35.336Z,17.10
2018-04-13T14:53:02.218Z,19.35
2018-04-13T14:55:29.022Z,16.90
2018-04-13T14:57:56.138Z,22.62
2018-04-13T15:00:22.950Z,17.70
2018-04-13T15:02:49.777Z,12.70
2018-04-13T15:05:16.598Z,18.92
2018-04-13T15:07:43.393Z,16.48
2018-04-13T15:10:10.242Z,21.20
2018-04-13T15:12:37.016Z,19.85
2018-04-13T15:15:03.874Z,20.73
2018-04-13T15:17:30.661Z,19.07
2018-04-13T15:19:57.498Z,19.70
2018-04-13T15:22:24.329Z,15.98
2018-04-13T15:24:51.159Z,23.13
2018-04-13T15:27:17.964Z,21.98
2018-04-13T15:29:44.753Z,19.77
2018-04-13T15:32:11.583Z,29.83
2018-04-13T15:34:38.423Z,24.73
2018-04-13T15:37:05.224Z,23.73
2018-04-13T15:39:32.073Z,30.73
2018-04-13T15:41:58.877Z,34.38
2018-04-13T15:44:25.676Z,28.37
2018-04-13T15:46:52.764Z,29.95
2018-04-13T15:49:19.780Z,34.22
2018-04-13T15:51:46.658Z,41.95
2018-04-13T15:54:13.490Z,49.80
2018-04-13T15:56:40.287Z,37.30
2018-04-13T15:59:07.125Z,35.05
2018-04-13T16:01:33.936Z,32.58
2018-04-13T16:04:00.814Z,34.90
2018-04-13T16:06:27.609Z,36.80
2018-04-13T16:08:54.417Z,37.67
2018-04-13T16:11:21.253Z,35.38
2018-04-13T16:13:48.090Z,43.65
2018-04-13T16:16:14.942Z,37.05
2018-04-13T16:18:41.729Z,36.87
2018-04-13T16:21:08.800Z,39.20
2018-04-13T16:23:35.846Z,37.13
2018-04-13T16:26:02.643Z,40.83
2018-04-13T16:28:29.740Z,34.70
2018-04-13T16:30:56.537Z,38.17
2018-04-13T16:33:23.651Z,39.45
2018-04-13T16:35:50.416Z,41.70
2018-04-13T16:38:17.474Z,42.78
2018-04-13T16:40:44.330Z,38.38
2018-04-13T16:43:11.332Z,42.10
2018-04-13T16:45:38.171Z,35.50
2018-04-13T16:48:05.191Z,41.00
2018-04-13T16:50:32.029Z,40.28
2018-04-13T16:52:58.814Z,37.47
2018-04-13T16:55:25.612Z,39.43
2018-04-13T16:57:52.447Z,39.15
2018-04-13T17:00:19.232Z,41.45
2018-04-13T17:02:46.044Z,38.55
2018-04-13T17:05:12.877Z,39.90
2018-04-13T17:07:39.694Z,42.42
2018-04-13T17:10:06.516Z,41.70
2018-04-13T17:12:33.307Z,38.20
2018-04-13T17:15:00.128Z,39.15
2018-04-13T17:17:27.224Z,40.38
2018-04-13T17:19:54.277Z,40.38
2018-04-13T17:22:21.128Z,42.13
2018-04-13T17:24:48.003Z,41.92
2018-04-13T17:27:15.104Z,40.90
2018-04-13T17:29:41.922Z,42.92
2018-04-13T17:32:08.998Z,39.25
2018-04-13T17:34:35.784Z,41.45
2018-04-13T17:37:02.643Z,39.78
2018-04-13T17:39:29.457Z,41.55
2018-04-13T17:41:56.272Z,40.28
2018-04-13T17:44:23.110Z,45.58
2018-04-13T17:46:50.120Z,41.37
2018-04-13T17:49:16.954Z,41.40
2018-04-13T17:51:43.798Z,42.08
2018-04-13T17:54:10.654Z,47.30
2018-04-13T17:56:37.485Z,41.40
2018-04-13T17:59:04.316Z,39.83
2018-04-13T18:01:31.143Z,40.50
2018-04-13T18:03:58.264Z,44.88
2018-04-13T18:06:25.114Z,40.58
2018-04-13T18:08:51.909Z,41.47
2018-04-13T18:11:18.708Z,41.25
2018-04-13T18:13:45.841Z,36.30
2018-04-13T18:16:12.889Z,37.97
2018-04-13T18:18:39.733Z,43.25
2018-04-13T18:21:06.780Z,41.87
2018-04-13T18:23:33.614Z,46.03
2018-04-13T18:26:00.668Z,45.33
2018-04-13T18:28:27.503Z,41.50
2018-04-13T18:30:54.573Z,42.78
2018-04-13T18:33:21.361Z,41.20
2018-04-13T18:35:48.155Z,39.67
2018-04-13T18:38:14.970Z,44.15
2018-04-13T18:40:42.082Z,44.03
2018-04-13T18:43:08.894Z,41.95
2018-04-13T18:45:35.698Z,42.47
2018-04-13T18:48:02.511Z,45.65
2018-04-13T18:50:29.548Z,39.75
2018-04-13T18:52:56.350Z,40.88
2018-04-13T18:55:23.202Z,38.25
2018-04-13T18:57:50.035Z,45.55
2018-04-13T19:00:16.785Z,39.05
2018-04-13T19:02:43.624Z,39.93
2018-04-13T19:05:10.786Z,37.35
2018-04-13T19:07:37.627Z,45.67
2018-04-13T19:10:04.687Z,42.72
2018-04-13T19:12:31.478Z,39.75
2018-04-13T19:14:58.518Z,42.53
2018-04-13T19:17:25.398Z,40.07
2018-04-13T19:19:52.238Z,42.05
2018-04-13T19:22:19.075Z,43.90
2018-04-13T19:24:46.136Z,45.97
2018-04-13T19:27:12.943Z,40.83
2018-04-13T19:29:40.035Z,40.65
2018-04-13T19:32:06.849Z,42.15
2018-04-13T19:34:33.686Z,41.60
2018-04-13T19:37:00.472Z,39.58
2018-04-13T19:39:27.321Z,45.67
2018-04-13T19:41:54.108Z,42.50
2018-04-13T19:44:21.190Z,43.67
2018-04-13T19:46:47.984Z,43.60
2018-04-13T19:49:14.815Z,39.92
2018-04-13T19:51:41.650Z,48.75
2018-04-13T19:54:08.469Z,43.45
2018-04-13T19:56:35.279Z,43.20
2018-04-13T19:59:02.101Z,46.35
2018-04-13T20:01:29.197Z,43.28
2018-04-13T20:03:56.029Z,45.03
2018-04-13T20:06:23.085Z,44.50
2018-04-13T20:08:49.931Z,44.72
2018-04-13T20:11:16.751Z,44.10
2018-04-13T20:13:43.577Z,45.53
2018-04-13T20:16:10.368Z,42.92
2018-04-13T20:18:37.405Z,45.23
2018-04-13T20:21:04.257Z,46.58
2018-04-13T20:23:31.068Z,47.97
2018-04-13T20:25:58.084Z,49.58
2018-04-13T20:28:24.922Z,45.03
2018-04-13T20:30:51.742Z,45.80
2018-04-13T20:33:18.814Z,43.85
2018-04-13T20:35:45.638Z,57.53
2018-04-13T20:38:12.685Z,46.55
2018-04-13T20:40:39.700Z,50.05
2018-04-13T20:43:06.494Z,48.15
2018-04-13T20:45:33.550Z,50.10
2018-04-13T20:48:00.375Z,49.17
2018-04-13T20:53:11.389Z,44.22
2018-04-13T20:55:38.257Z,49.92
2018-04-13T20:58:05.113Z,41.85
2018-04-13T21:00:32.290Z,43.53
2018-04-13T21:02:59.139Z,41.60
2018-04-13T21:05:26.311Z,40.67
2018-04-13T21:07:53.129Z,38.10
2018-04-13T21:10:20.006Z,46.92
2018-04-13T21:12:46.871Z,38.22
2018-04-13T21:15:13.740Z,38.47
2018-04-13T21:17:40.597Z,38.97
2018-04-13T21:20:07.422Z,43.65
2018-04-13T21:22:34.258Z,38.75
2018-04-13T21:25:01.439Z,42.85
2018-04-13T21:27:28.272Z,41.25
2018-04-13T21:29:55.135Z,41.33
2018-04-13T21:32:21.957Z,42.07
2018-04-13T21:34:48.794Z,40.33
2018-04-13T21:37:15.622Z,41.17
2018-04-13T21:39:42.437Z,48.22
2018-04-13T21:42:09.511Z,44.30
2018-04-13T21:44:36.694Z,48.63
2018-04-13T21:47:03.757Z,52.45
2018-04-13T21:49:30.584Z,55.58
2018-04-13T21:51:57.739Z,51.22
2018-04-13T21:54:24.599Z,52.73
2018-04-13T21:56:51.736Z,55.30
2018-04-13T21:59:18.599Z,51.50
2018-04-13T22:01:45.458Z,55.83
2018-04-13T22:04:12.327Z,50.53
2018-04-13T22:06:39.412Z,54.03
2018-04-13T22:09:06.253Z,55.40
2018-04-13T22:11:33.119Z,52.70
2018-04-13T22:14:06.293Z,51.00
2018-04-13T22:16:33.131Z,50.50
2018-04-13T22:18:59.945Z,56.50
2018-04-13T22:21:27.023Z,57.45
2018-04-13T22:23:54.310Z,57.88
2018-04-13T22:26:21.126Z,55.03
2018-04-13T22:28:48.265Z,54.90
2018-04-13T22:31:15.154Z,55.95
2018-04-13T22:33:41.965Z,55.35
2018-04-13T22:36:08.837Z,57.92
2018-04-13T22:38:35.945Z,59.53
2018-04-13T22:41:03.106Z,54.63
2018-04-13T22:43:29.958Z,54.92
2018-04-13T22:45:56.886Z,54.92
2018-04-13T22:48:23.734Z,56.15
2018-04-13T22:50:50.604Z,61.37
2018-04-13T22:53:17.507Z,58.55
2018-04-13T22:55:44.353Z,61.05
2018-04-13T22:58:11.516Z,57.53
2018-04-13T23:00:38.390Z,59.00
2018-04-13T23:03:05.257Z,59.92
2018-04-13T23:05:32.090Z,54.92
2018-04-13T23:07:58.944Z,58.42
2018-04-13T23:10:26.142Z,54.60
2018-04-13T23:12:52.965Z,59.33
2018-04-13T23:15:19.906Z,58.10
2018-04-13T23:17:46.725Z,55.90
2018-04-13T23:20:14.541Z,58.55
2018-04-13T23:22:41.459Z,59.20
2018-04-13T23:25:08.316Z,60.10
2018-04-13T23:27:35.402Z,60.63
2018-04-13T23:30:02.531Z,62.50
2018-04-13T23:32:29.395Z,59.53
2018-04-13T23:34:56.523Z,60.80
2018-04-13T23:37:23.669Z,65.63
2018-04-13T23:39:50.538Z,60.80
2018-04-13T23:42:17.397Z,68.60
2018-04-13T23:44:44.283Z,62.30
2018-04-13T23:47:11.146Z,63.78
2018-04-13T23:49:38.012Z,64.47
2018-04-13T23:52:04.886Z,67.05
2018-04-13T23:54:31.770Z,69.28
2018-04-13T23:56:58.605Z,68.40
2018-04-13T23:59:25.482Z,66.03
